sensor_id;sensor_type;location;lat;lon;timestamp;pressure;altitude;pressure_sealevel;temperature;humidity
61292;BME280;47165;42.664;23.368;2022-08-01T00:01:46;94907.06;;;22.02;45.50
61292;BME280;47165;42.664;23.368;2022-08-01T00:04:12;94894.25;;;21.98;45.40
61292;BME280;47165;42.664;23.368;2022-08-01T00:06:37;94895.28;;;22.05;45.39
61292;BME280;47165;42.664;23.368;2022-08-01T00:09:03;94889.00;;;22.14;44.99
61292;BME280;47165;42.664;23.368;2022-08-01T00:11:28;94880.22;;;22.22;44.85
61292;BME280;47165;42.664;23.368;2022-08-01T00:13:54;94892.63;;;22.05;45.02
61292;BME280;47165;42.664;23.368;2022-08-01T00:16:19;94883.03;;;22.20;44.86
61292;BME280;47165;42.664;23.368;2022-08-01T00:18:48;94884.75;;;22.29;45.07
61292;BME280;47165;42.664;23.368;2022-08-01T00:21:14;94893.25;;;22.41;44.88
61292;BME280;47165;42.664;23.368;2022-08-01T00:23:40;94889.78;;;22.49;44.13
61292;BME280;47165;42.664;23.368;2022-08-01T00:26:05;94901.44;;;22.56;44.37
61292;BME280;47165;42.664;23.368;2022-08-01T00:28:30;94906.44;;;22.59;44.91
61292;BME280;47165;42.664;23.368;2022-08-01T00:30:56;94903.44;;;22.54;45.81
61292;BME280;47165;42.664;23.368;2022-08-01T00:33:21;94911.09;;;22.57;46.28
61292;BME280;47165;42.664;23.368;2022-08-01T00:35:47;94908.78;;;22.54;46.66
61292;BME280;47165;42.664;23.368;2022-08-01T00:38:12;94901.41;;;22.40;47.30
61292;BME280;47165;42.664;23.368;2022-08-01T00:40:37;94904.06;;;22.32;47.68
61292;BME280;47165;42.664;23.368;2022-08-01T00:43:03;94906.69;;;22.23;48.35
61292;BME280;47165;42.664;23.368;2022-08-01T00:45:28;94910.94;;;22.16;48.67
61292;BME280;47165;42.664;23.368;2022-08-01T00:47:54;94905.59;;;22.08;48.71
61292;BME280;47165;42.664;23.368;2022-08-01T00:50:19;94905.91;;;21.97;49.15
61292;BME280;47165;42.664;23.368;2022-08-01T00:52:45;94905.69;;;21.90;49.11
61292;BME280;47165;42.664;23.368;2022-08-01T00:55:11;94897.66;;;21.82;49.75
61292;BME280;47165;42.664;23.368;2022-08-01T00:57:37;94902.59;;;21.68;49.75
61292;BME280;47165;42.664;23.368;2022-08-01T01:00:05;94894.44;;;21.62;50.19
61292;BME280;47165;42.664;23.368;2022-08-01T01:02:31;94888.38;;;21.52;50.23
61292;BME280;47165;42.664;23.368;2022-08-01T01:04:57;94888.47;;;21.42;50.36
61292;BME280;47165;42.664;23.368;2022-08-01T01:07:34;94879.28;;;21.36;50.65
61292;BME280;47165;42.664;23.368;2022-08-01T01:10:16;94875.31;;;21.40;50.91
61292;BME280;47165;42.664;23.368;2022-08-01T01:12:47;94874.88;;;21.45;51.02
61292;BME280;47165;42.664;23.368;2022-08-01T01:15:27;94869.41;;;21.46;51.17
61292;BME280;47165;42.664;23.368;2022-08-01T01:18:02;94871.25;;;21.46;50.17
61292;BME280;47165;42.664;23.368;2022-08-01T01:20:32;94874.59;;;21.48;49.96
61292;BME280;47165;42.664;23.368;2022-08-01T01:26:04;94866.00;;;21.36;50.52
61292;BME280;47165;42.664;23.368;2022-08-01T01:28:34;94869.34;;;21.38;50.14
61292;BME280;47165;42.664;23.368;2022-08-01T01:31:03;94862.66;;;21.34;50.20
61292;BME280;47165;42.664;23.368;2022-08-01T01:33:33;94861.41;;;21.20;51.03
61292;BME280;47165;42.664;23.368;2022-08-01T01:36:09;94866.91;;;21.19;50.68
61292;BME280;47165;42.664;23.368;2022-08-01T01:38:40;94854.94;;;21.15;50.16
61292;BME280;47165;42.664;23.368;2022-08-01T01:41:08;94853.53;;;21.02;50.22
61292;BME280;47165;42.664;23.368;2022-08-01T01:43:36;94852.38;;;21.05;51.53
61292;BME280;47165;42.664;23.368;2022-08-01T01:46:03;94858.03;;;21.10;51.17
61292;BME280;47165;42.664;23.368;2022-08-01T01:48:30;94860.81;;;21.00;50.71
61292;BME280;47165;42.664;23.368;2022-08-01T01:50:58;94847.16;;;20.95;51.02
61292;BME280;47165;42.664;23.368;2022-08-01T01:53:24;94851.91;;;20.92;51.27
61292;BME280;47165;42.664;23.368;2022-08-01T01:55:53;94845.50;;;20.94;51.63
61292;BME280;47165;42.664;23.368;2022-08-01T01:58:20;94852.84;;;21.00;50.54
61292;BME280;47165;42.664;23.368;2022-08-01T02:00:48;94844.25;;;21.06;50.96
61292;BME280;47165;42.664;23.368;2022-08-01T02:03:16;94843.41;;;21.06;51.44
61292;BME280;47165;42.664;23.368;2022-08-01T02:05:43;94841.41;;;21.08;50.14
61292;BME280;47165;42.664;23.368;2022-08-01T02:08:10;94831.81;;;21.07;49.27
61292;BME280;47165;42.664;23.368;2022-08-01T02:10:39;94835.50;;;20.88;48.29
61292;BME280;47165;42.664;23.368;2022-08-01T02:13:05;94838.34;;;20.95;47.86
61292;BME280;47165;42.664;23.368;2022-08-01T02:15:33;94830.59;;;21.01;46.76
61292;BME280;47165;42.664;23.368;2022-08-01T02:18:00;94832.34;;;21.10;48.85
61292;BME280;47165;42.664;23.368;2022-08-01T02:20:29;94834.72;;;21.22;48.33
61292;BME280;47165;42.664;23.368;2022-08-01T02:23:11;94836.06;;;21.26;47.57
61292;BME280;47165;42.664;23.368;2022-08-01T02:25:46;94823.47;;;21.28;50.48
61292;BME280;47165;42.664;23.368;2022-08-01T02:28:16;94833.94;;;21.29;50.41
61292;BME280;47165;42.664;23.368;2022-08-01T02:30:46;94841.22;;;21.27;51.77
61292;BME280;47165;42.664;23.368;2022-08-01T02:33:43;94829.41;;;21.22;49.98
61292;BME280;47165;42.664;23.368;2022-08-01T02:36:11;94838.16;;;21.14;49.87
61292;BME280;47165;42.664;23.368;2022-08-01T02:38:41;94839.97;;;21.14;50.09
61292;BME280;47165;42.664;23.368;2022-08-01T02:41:10;94838.31;;;21.13;49.69
61292;BME280;47165;42.664;23.368;2022-08-01T02:43:40;94840.13;;;21.12;49.24
61292;BME280;47165;42.664;23.368;2022-08-01T02:46:11;94832.47;;;21.09;48.78
61292;BME280;47165;42.664;23.368;2022-08-01T02:48:42;94836.28;;;21.06;48.71
61292;BME280;47165;42.664;23.368;2022-08-01T02:51:08;94838.28;;;21.04;48.90
61292;BME280;47165;42.664;23.368;2022-08-01T02:53:36;94833.09;;;21.03;48.99
61292;BME280;47165;42.664;23.368;2022-08-01T02:56:08;94828.63;;;21.03;48.76
61292;BME280;47165;42.664;23.368;2022-08-01T02:58:35;94831.59;;;21.00;48.93
61292;BME280;47165;42.664;23.368;2022-08-01T03:01:04;94833.19;;;20.93;48.09
61292;BME280;47165;42.664;23.368;2022-08-01T03:03:30;94840.19;;;20.94;48.65
61292;BME280;47165;42.664;23.368;2022-08-01T03:05:57;94838.50;;;20.93;48.83
61292;BME280;47165;42.664;23.368;2022-08-01T03:08:23;94839.81;;;20.89;49.13
61292;BME280;47165;42.664;23.368;2022-08-01T03:10:51;94843.06;;;20.83;49.08
61292;BME280;47165;42.664;23.368;2022-08-01T03:13:20;94854.00;;;20.80;50.03
61292;BME280;47165;42.664;23.368;2022-08-01T03:15:47;94838.69;;;20.74;50.94
61292;BME280;47165;42.664;23.368;2022-08-01T03:18:14;94841.69;;;20.07;53.39
61292;BME280;47165;42.664;23.368;2022-08-01T03:20:41;94836.56;;;20.23;53.25
61292;BME280;47165;42.664;23.368;2022-08-01T03:23:10;94834.69;;;20.69;51.27
61292;BME280;47165;42.664;23.368;2022-08-01T03:25:39;94842.22;;;21.00;51.20
61292;BME280;47165;42.664;23.368;2022-08-01T03:28:06;94841.13;;;21.11;49.85
61292;BME280;47165;42.664;23.368;2022-08-01T03:30:34;94838.63;;;21.09;49.78
61292;BME280;47165;42.664;23.368;2022-08-01T03:33:02;94839.69;;;21.17;49.85
61292;BME280;47165;42.664;23.368;2022-08-01T03:35:30;94838.94;;;21.06;49.93
61292;BME280;47165;42.664;23.368;2022-08-01T03:38:00;94844.34;;;20.97;49.54
61292;BME280;47165;42.664;23.368;2022-08-01T03:40:39;94844.34;;;20.97;49.89
61292;BME280;47165;42.664;23.368;2022-08-01T03:43:11;94854.13;;;20.96;50.03
61292;BME280;47165;42.664;23.368;2022-08-01T03:45:41;94844.13;;;20.90;50.19
61292;BME280;47165;42.664;23.368;2022-08-01T03:48:18;94849.38;;;20.82;51.03
61292;BME280;47165;42.664;23.368;2022-08-01T03:50:48;94856.00;;;20.78;53.05
61292;BME280;47165;42.664;23.368;2022-08-01T03:53:15;94846.59;;;20.65;52.61
61292;BME280;47165;42.664;23.368;2022-08-01T03:55:43;94850.53;;;20.61;53.69
61292;BME280;47165;42.664;23.368;2022-08-01T03:58:09;94853.78;;;20.55;53.43
61292;BME280;47165;42.664;23.368;2022-08-01T04:00:39;94845.28;;;20.52;51.37
61292;BME280;47165;42.664;23.368;2022-08-01T04:03:07;94847.56;;;20.64;51.87
61292;BME280;47165;42.664;23.368;2022-08-01T04:05:33;94849.69;;;20.61;51.66
61292;BME280;47165;42.664;23.368;2022-08-01T04:07:59;94848.56;;;20.63;52.00
61292;BME280;47165;42.664;23.368;2022-08-01T04:10:27;94850.97;;;20.75;50.52
61292;BME280;47165;42.664;23.368;2022-08-01T04:12:52;94849.06;;;20.67;51.22
61292;BME280;47165;42.664;23.368;2022-08-01T04:15:18;94854.22;;;20.68;50.90
61292;BME280;47165;42.664;23.368;2022-08-01T04:17:45;94859.25;;;20.72;52.79
61292;BME280;47165;42.664;23.368;2022-08-01T04:20:11;94846.72;;;20.46;53.05
61292;BME280;47165;42.664;23.368;2022-08-01T04:22:38;94854.75;;;20.18;52.97
61292;BME280;47165;42.664;23.368;2022-08-01T04:25:08;94854.94;;;20.07;53.01
61292;BME280;47165;42.664;23.368;2022-08-01T04:27:37;94850.31;;;20.09;53.88
61292;BME280;47165;42.664;23.368;2022-08-01T04:30:05;94861.06;;;20.07;53.34
61292;BME280;47165;42.664;23.368;2022-08-01T04:32:33;94860.38;;;20.05;53.52
61292;BME280;47165;42.664;23.368;2022-08-01T04:35:02;94859.34;;;20.34;52.52
61292;BME280;47165;42.664;23.368;2022-08-01T04:37:32;94856.56;;;20.54;52.61
61292;BME280;47165;42.664;23.368;2022-08-01T04:39:59;94855.56;;;20.55;52.38
61292;BME280;47165;42.664;23.368;2022-08-01T04:42:26;94850.44;;;20.71;51.57
61292;BME280;47165;42.664;23.368;2022-08-01T04:44:52;94850.34;;;20.81;51.02
61292;BME280;47165;42.664;23.368;2022-08-01T04:47:18;94849.75;;;20.87;49.93
61292;BME280;47165;42.664;23.368;2022-08-01T04:49:44;94845.09;;;20.89;49.78
61292;BME280;47165;42.664;23.368;2022-08-01T04:52:11;94854.13;;;20.96;49.43
61292;BME280;47165;42.664;23.368;2022-08-01T04:54:36;94857.81;;;21.03;49.59
61292;BME280;47165;42.664;23.368;2022-08-01T04:57:05;94854.50;;;21.01;49.74
61292;BME280;47165;42.664;23.368;2022-08-01T04:59:32;94856.53;;;21.07;48.82
61292;BME280;47165;42.664;23.368;2022-08-01T05:02:16;94847.41;;;21.10;48.68
61292;BME280;47165;42.664;23.368;2022-08-01T05:04:44;94838.47;;;21.11;48.45
61292;BME280;47165;42.664;23.368;2022-08-01T05:07:10;94844.31;;;21.15;48.79
61292;BME280;47165;42.664;23.368;2022-08-01T05:09:36;94837.69;;;21.19;48.66
61292;BME280;47165;42.664;23.368;2022-08-01T05:12:04;94838.00;;;21.16;48.66
61292;BME280;47165;42.664;23.368;2022-08-01T05:14:31;94841.72;;;21.23;48.39
61292;BME280;47165;42.664;23.368;2022-08-01T05:17:00;94844.03;;;21.26;48.05
61292;BME280;47165;42.664;23.368;2022-08-01T05:19:29;94841.38;;;21.26;48.28
61292;BME280;47165;42.664;23.368;2022-08-01T05:21:55;94841.53;;;21.24;48.06
61292;BME280;47165;42.664;23.368;2022-08-01T05:24:21;94834.47;;;21.33;47.57
61292;BME280;47165;42.664;23.368;2022-08-01T05:26:47;94831.13;;;21.31;47.59
61292;BME280;47165;42.664;23.368;2022-08-01T05:29:14;94842.78;;;21.38;47.75
61292;BME280;47165;42.664;23.368;2022-08-01T05:31:40;94834.06;;;21.46;47.60
61292;BME280;47165;42.664;23.368;2022-08-01T05:34:05;94840.56;;;21.52;46.75
61292;BME280;47165;42.664;23.368;2022-08-01T05:36:30;94836.91;;;21.53;45.94
61292;BME280;47165;42.664;23.368;2022-08-01T05:38:56;94832.63;;;21.60;45.62
61292;BME280;47165;42.664;23.368;2022-08-01T05:41:21;94845.63;;;21.71;45.40
61292;BME280;47165;42.664;23.368;2022-08-01T05:43:47;94836.03;;;21.78;44.76
61292;BME280;47165;42.664;23.368;2022-08-01T05:46:12;94834.19;;;21.79;44.34
61292;BME280;47165;42.664;23.368;2022-08-01T05:48:37;94836.56;;;21.90;44.66
61292;BME280;47165;42.664;23.368;2022-08-01T05:51:03;94838.34;;;21.81;44.33
61292;BME280;47165;42.664;23.368;2022-08-01T05:53:28;94846.25;;;21.99;43.69
61292;BME280;47165;42.664;23.368;2022-08-01T05:55:54;94849.56;;;22.01;43.49
61292;BME280;47165;42.664;23.368;2022-08-01T05:58:20;94845.69;;;21.87;43.66
61292;BME280;47165;42.664;23.368;2022-08-01T06:00:46;94842.03;;;22.31;43.01
61292;BME280;47165;42.664;23.368;2022-08-01T06:03:11;94843.41;;;22.84;41.80
61292;BME280;47165;42.664;23.368;2022-08-01T06:05:37;94837.56;;;23.30;40.36
61292;BME280;47165;42.664;23.368;2022-08-01T06:08:03;94837.81;;;23.60;39.38
61292;BME280;47165;42.664;23.368;2022-08-01T06:10:28;94837.75;;;23.76;39.18
61292;BME280;47165;42.664;23.368;2022-08-01T06:12:54;94835.09;;;23.84;38.20
61292;BME280;47165;42.664;23.368;2022-08-01T06:15:19;94835.09;;;24.16;37.79
61292;BME280;47165;42.664;23.368;2022-08-01T06:17:45;94836.91;;;24.23;36.79
61292;BME280;47165;42.664;23.368;2022-08-01T06:20:10;94872.53;;;23.99;35.62
61292;BME280;47165;42.664;23.368;2022-08-01T06:22:36;94839.38;;;24.02;35.20
61292;BME280;47165;42.664;23.368;2022-08-01T06:25:01;94848.44;;;23.76;35.30
61292;BME280;47165;42.664;23.368;2022-08-01T06:27:26;94840.09;;;23.87;35.50
61292;BME280;47165;42.664;23.368;2022-08-01T06:29:52;94830.53;;;23.93;36.01
61292;BME280;47165;42.664;23.368;2022-08-01T06:32:21;94841.72;;;23.97;36.17
61292;BME280;47165;42.664;23.368;2022-08-01T06:34:52;94835.06;;;23.93;35.82
61292;BME280;47165;42.664;23.368;2022-08-01T06:37:17;94841.50;;;24.06;35.61
61292;BME280;47165;42.664;23.368;2022-08-01T06:39:43;94834.56;;;24.28;35.59
61292;BME280;47165;42.664;23.368;2022-08-01T06:42:08;94849.16;;;24.41;34.75
61292;BME280;47165;42.664;23.368;2022-08-01T06:44:34;94832.50;;;24.39;34.68
61292;BME280;47165;42.664;23.368;2022-08-01T06:47:00;94828.25;;;24.21;34.49
61292;BME280;47165;42.664;23.368;2022-08-01T06:49:25;94830.28;;;24.42;34.85
61292;BME280;47165;42.664;23.368;2022-08-01T06:51:51;94818.63;;;24.66;34.25
61292;BME280;47165;42.664;23.368;2022-08-01T06:54:16;94809.06;;;24.49;34.43
61292;BME280;47165;42.664;23.368;2022-08-01T06:56:42;94792.03;;;24.27;34.64
61292;BME280;47165;42.664;23.368;2022-08-01T06:59:08;94816.75;;;24.21;35.15
61292;BME280;47165;42.664;23.368;2022-08-01T07:01:33;94801.28;;;24.16;35.25
61292;BME280;47165;42.664;23.368;2022-08-01T07:03:59;94805.16;;;24.37;35.40
61292;BME280;47165;42.664;23.368;2022-08-01T07:06:25;94796.50;;;24.35;35.27
61292;BME280;47165;42.664;23.368;2022-08-01T07:08:54;94802.06;;;24.48;35.48
61292;BME280;47165;42.664;23.368;2022-08-01T07:11:20;94800.31;;;24.63;35.92
61292;BME280;47165;42.664;23.368;2022-08-01T07:13:45;94805.81;;;24.07;36.03
61292;BME280;47165;42.664;23.368;2022-08-01T07:16:12;94792.47;;;24.39;35.66
61292;BME280;47165;42.664;23.368;2022-08-01T07:18:38;94799.13;;;24.66;35.86
61292;BME280;47165;42.664;23.368;2022-08-01T07:21:03;94805.28;;;24.66;35.58
61292;BME280;47165;42.664;23.368;2022-08-01T07:23:28;94796.97;;;24.84;35.37
61292;BME280;47165;42.664;23.368;2022-08-01T07:25:54;94807.47;;;24.86;35.55
61292;BME280;47165;42.664;23.368;2022-08-01T07:28:19;94806.59;;;24.70;35.79
61292;BME280;47165;42.664;23.368;2022-08-01T07:30:45;94803.63;;;24.65;35.57
61292;BME280;47165;42.664;23.368;2022-08-01T07:33:10;94808.19;;;24.80;35.26
61292;BME280;47165;42.664;23.368;2022-08-01T07:35:36;94812.41;;;24.74;35.22
61292;BME280;47165;42.664;23.368;2022-08-01T07:38:05;94803.97;;;24.62;35.71
61292;BME280;47165;42.664;23.368;2022-08-01T07:40:31;94810.22;;;24.78;35.64
61292;BME280;47165;42.664;23.368;2022-08-01T07:42:57;94812.81;;;24.86;35.04
61292;BME280;47165;42.664;23.368;2022-08-01T07:45:22;94822.06;;;24.98;34.82
61292;BME280;47165;42.664;23.368;2022-08-01T07:47:48;94823.88;;;24.98;34.48
61292;BME280;47165;42.664;23.368;2022-08-01T07:50:15;94798.09;;;24.90;34.07
61292;BME280;47165;42.664;23.368;2022-08-01T07:52:41;94812.38;;;24.97;33.63
61292;BME280;47165;42.664;23.368;2022-08-01T07:55:07;94807.91;;;25.13;33.69
61292;BME280;47165;42.664;23.368;2022-08-01T07:57:33;94837.00;;;25.07;34.16
61292;BME280;47165;42.664;23.368;2022-08-01T07:59:58;94803.47;;;25.20;34.53
61292;BME280;47165;42.664;23.368;2022-08-01T08:02:24;94813.91;;;25.15;34.62
61292;BME280;47165;42.664;23.368;2022-08-01T08:04:49;94816.75;;;25.13;34.63
61292;BME280;47165;42.664;23.368;2022-08-01T08:07:15;94810.84;;;25.18;34.60
61292;BME280;47165;42.664;23.368;2022-08-01T08:09:40;94822.84;;;25.22;34.57
61292;BME280;47165;42.664;23.368;2022-08-01T08:12:06;94812.91;;;25.30;35.08
61292;BME280;47165;42.664;23.368;2022-08-01T08:14:31;94808.31;;;25.39;34.75
61292;BME280;47165;42.664;23.368;2022-08-01T08:16:57;94811.09;;;25.46;34.53
61292;BME280;47165;42.664;23.368;2022-08-01T08:19:22;94813.84;;;25.67;34.64
61292;BME280;47165;42.664;23.368;2022-08-01T08:21:48;94820.22;;;25.52;34.66
61292;BME280;47165;42.664;23.368;2022-08-01T08:24:13;94825.09;;;25.33;34.23
61292;BME280;47165;42.664;23.368;2022-08-01T08:26:46;94800.13;;;25.56;33.78
61292;BME280;47165;42.664;23.368;2022-08-01T08:29:12;94801.50;;;25.66;34.08
61292;BME280;47165;42.664;23.368;2022-08-01T08:31:37;94813.03;;;25.67;33.98
61292;BME280;47165;42.664;23.368;2022-08-01T08:34:03;94804.84;;;25.16;34.47
61292;BME280;47165;42.664;23.368;2022-08-01T08:36:28;94805.38;;;25.49;33.81
61292;BME280;47165;42.664;23.368;2022-08-01T08:38:54;94809.69;;;25.65;33.63
61292;BME280;47165;42.664;23.368;2022-08-01T08:41:20;94812.09;;;25.75;34.26
61292;BME280;47165;42.664;23.368;2022-08-01T08:43:46;94826.13;;;25.92;33.75
61292;BME280;47165;42.664;23.368;2022-08-01T08:46:14;94811.09;;;25.46;33.10
61292;BME280;47165;42.664;23.368;2022-08-01T08:48:40;94807.94;;;25.57;33.30
61292;BME280;47165;42.664;23.368;2022-08-01T08:51:07;94805.28;;;25.72;32.61
61292;BME280;47165;42.664;23.368;2022-08-01T08:53:35;94814.69;;;25.98;33.11
61292;BME280;47165;42.664;23.368;2022-08-01T08:56:02;94814.69;;;25.98;32.02
61292;BME280;47165;42.664;23.368;2022-08-01T08:58:29;94804.75;;;25.62;31.69
61292;BME280;47165;42.664;23.368;2022-08-01T09:00:59;94812.09;;;25.75;32.12
61292;BME280;47165;42.664;23.368;2022-08-01T09:03:24;94804.53;;;25.63;32.67
61292;BME280;47165;42.664;23.368;2022-08-01T09:05:50;94800.56;;;25.74;31.84
61292;BME280;47165;42.664;23.368;2022-08-01T09:08:15;94820.38;;;25.80;32.61
61292;BME280;47165;42.664;23.368;2022-08-01T09:10:41;94805.81;;;25.82;31.64
61292;BME280;47165;42.664;23.368;2022-08-01T09:13:12;94806.41;;;25.93;32.09
61292;BME280;47165;42.664;23.368;2022-08-01T09:15:40;94786.34;;;25.74;32.19
61292;BME280;47165;42.664;23.368;2022-08-01T09:18:06;94814.44;;;25.93;31.57
61292;BME280;47165;42.664;23.368;2022-08-01T09:20:32;94801.38;;;26.19;31.82
61292;BME280;47165;42.664;23.368;2022-08-01T09:23:00;94791.59;;;26.33;31.00
61292;BME280;47165;42.664;23.368;2022-08-01T09:25:26;94786.72;;;26.37;31.27
61292;BME280;47165;42.664;23.368;2022-08-01T09:28:05;94787.22;;;26.47;31.20
61292;BME280;47165;42.664;23.368;2022-08-01T09:30:37;94771.78;;;26.49;31.34
61292;BME280;47165;42.664;23.368;2022-08-01T09:33:04;94782.75;;;26.33;30.65
61292;BME280;47165;42.664;23.368;2022-08-01T09:35:32;94792.47;;;26.34;30.32
61292;BME280;47165;42.664;23.368;2022-08-01T09:38:19;94792.47;;;26.34;29.88
61292;BME280;47165;42.664;23.368;2022-08-01T09:40:56;94788.69;;;26.64;30.20
61292;BME280;47165;42.664;23.368;2022-08-01T09:43:24;94781.69;;;26.70;29.85
61292;BME280;47165;42.664;23.368;2022-08-01T09:45:51;94769.72;;;26.66;30.02
61292;BME280;47165;42.664;23.368;2022-08-01T09:48:17;94792.88;;;26.74;30.23
61292;BME280;47165;42.664;23.368;2022-08-01T09:50:44;94785.88;;;26.73;30.37
61292;BME280;47165;42.664;23.368;2022-08-01T09:53:10;94782.25;;;26.44;30.51
61292;BME280;47165;42.664;23.368;2022-08-01T09:55:40;94782.03;;;26.60;30.70
61292;BME280;47165;42.664;23.368;2022-08-01T09:58:06;94773.38;;;26.58;30.97
61292;BME280;47165;42.664;23.368;2022-08-01T10:00:33;94785.88;;;26.73;30.83
61292;BME280;47165;42.664;23.368;2022-08-01T10:02:59;94765.31;;;26.80;31.08
61292;BME280;47165;42.664;23.368;2022-08-01T10:05:32;94777.56;;;26.89;31.63
61292;BME280;47165;42.664;23.368;2022-08-01T10:08:00;94785.63;;;26.96;30.83
61292;BME280;47165;42.664;23.368;2022-08-01T10:10:27;94770.88;;;27.06;30.53
61292;BME280;47165;42.664;23.368;2022-08-01T10:12:55;94766.00;;;27.17;29.19
61292;BME280;47165;42.664;23.368;2022-08-01T10:15:21;94766.84;;;26.67;30.39
61292;BME280;47165;42.664;23.368;2022-08-01T10:17:53;94757.91;;;26.82;30.47
61292;BME280;47165;42.664;23.368;2022-08-01T10:20:21;94765.13;;;27.09;31.20
61292;BME280;47165;42.664;23.368;2022-08-01T10:22:49;94762.31;;;27.18;30.26
61292;BME280;47165;42.664;23.368;2022-08-01T10:25:17;94758.78;;;26.89;29.91
61292;BME280;47165;42.664;23.368;2022-08-01T10:27:43;94782.88;;;26.24;30.64
61292;BME280;47165;42.664;23.368;2022-08-01T10:30:12;94766.31;;;26.36;31.33
61292;BME280;47165;42.664;23.368;2022-08-01T10:32:38;94768.91;;;26.07;31.51
61292;BME280;47165;42.664;23.368;2022-08-01T10:35:06;94761.22;;;26.04;32.07
61292;BME280;47165;42.664;23.368;2022-08-01T10:37:35;94753.75;;;26.36;31.80
61292;BME280;47165;42.664;23.368;2022-08-01T10:40:01;94766.03;;;26.09;32.11
61292;BME280;47165;42.664;23.368;2022-08-01T10:42:27;94750.63;;;26.33;32.75
61292;BME280;47165;42.664;23.368;2022-08-01T10:44:54;94759.59;;;26.61;32.06
61292;BME280;47165;42.664;23.368;2022-08-01T10:47:25;94755.75;;;26.71;31.38
61292;BME280;47165;42.664;23.368;2022-08-01T10:52:24;94754.63;;;26.86;31.28
61292;BME280;47165;42.664;23.368;2022-08-01T10:55:03;94782.78;;;26.97;30.95
61292;BME280;47165;42.664;23.368;2022-08-01T10:57:43;94765.88;;;27.25;30.14
61292;BME280;47165;42.664;23.368;2022-08-01T11:00:16;94743.44;;;27.33;30.03
61292;BME280;47165;42.664;23.368;2022-08-01T11:02:57;94753.81;;;27.42;30.19
61292;BME280;47165;42.664;23.368;2022-08-01T11:05:23;94762.53;;;26.95;30.19
61292;BME280;47165;42.664;23.368;2022-08-01T11:07:53;94766.78;;;27.10;30.49
61292;BME280;47165;42.664;23.368;2022-08-01T11:12:48;94759.69;;;27.03;30.74
61292;BME280;47165;42.664;23.368;2022-08-01T11:17:41;94737.03;;;27.34;30.16
61292;BME280;47165;42.664;23.368;2022-08-01T11:20:26;94739.63;;;27.20;30.83
61292;BME280;47165;42.664;23.368;2022-08-01T11:33:07;94719.97;;;28.51;29.14
61292;BME280;47165;42.664;23.368;2022-08-01T11:35:34;94734.44;;;28.63;28.86
61292;BME280;47165;42.664;23.368;2022-08-01T11:38:23;94719.97;;;28.84;28.29
61292;BME280;47165;42.664;23.368;2022-08-01T11:41:15;94726.78;;;28.60;28.26
61292;BME280;47165;42.664;23.368;2022-08-01T11:47:08;94722.22;;;29.07;28.60
61292;BME280;47165;42.664;23.368;2022-08-01T11:49:44;94742.28;;;28.98;28.14
61292;BME280;47165;42.664;23.368;2022-08-01T11:52:30;94726.41;;;27.88;29.14
61292;BME280;47165;42.664;23.368;2022-08-01T11:57:30;94716.06;;;28.74;28.89
61292;BME280;47165;42.664;23.368;2022-08-01T11:59:57;94725.53;;;29.03;28.17
61292;BME280;47165;42.664;23.368;2022-08-01T12:02:28;94727.19;;;28.91;28.30
61292;BME280;47165;42.664;23.368;2022-08-01T12:05:12;94718.91;;;29.12;28.08
61292;BME280;47165;42.664;23.368;2022-08-01T12:07:39;94707.72;;;29.35;27.47
61292;BME280;47165;42.664;23.368;2022-08-01T12:12:34;94718.91;;;29.97;27.42
61292;BME280;47165;42.664;23.368;2022-08-01T12:15:03;94713.44;;;30.11;26.44
61292;BME280;47165;42.664;23.368;2022-08-01T12:17:35;94729.56;;;30.17;26.49
61292;BME280;47165;42.664;23.368;2022-08-01T12:20:03;94728.72;;;30.23;26.86
61292;BME280;47165;42.664;23.368;2022-08-01T12:22:29;94721.09;;;30.52;25.99
61292;BME280;47165;42.664;23.368;2022-08-01T12:24:55;94713.31;;;30.94;25.93
61292;BME280;47165;42.664;23.368;2022-08-01T12:27:29;94711.78;;;31.48;25.71
61292;BME280;47165;42.664;23.368;2022-08-01T12:29:57;94714.47;;;31.85;24.60
61292;BME280;47165;42.664;23.368;2022-08-01T12:34:52;94720.31;;;31.45;25.15
61292;BME280;47165;42.664;23.368;2022-08-01T12:37:18;94712.81;;;31.84;24.75
61292;BME280;47165;42.664;23.368;2022-08-01T12:39:45;94710.84;;;32.94;23.90
61292;BME280;47165;42.664;23.368;2022-08-01T12:42:12;94712.56;;;33.95;22.05
61292;BME280;47165;42.664;23.368;2022-08-01T12:44:41;94715.56;;;34.22;21.67
61292;BME280;47165;42.664;23.368;2022-08-01T12:47:08;94711.34;;;33.62;22.06
61292;BME280;47165;42.664;23.368;2022-08-01T12:49:37;94707.13;;;33.19;22.18
61292;BME280;47165;42.664;23.368;2022-08-01T12:52:04;94700.03;;;32.94;23.17
61292;BME280;47165;42.664;23.368;2022-08-01T12:54:29;94699.41;;;32.68;22.26
61292;BME280;47165;42.664;23.368;2022-08-01T12:56:55;94702.44;;;32.18;23.44
61292;BME280;47165;42.664;23.368;2022-08-01T12:59:23;94708.63;;;31.52;24.40
61292;BME280;47165;42.664;23.368;2022-08-01T13:01:51;94708.19;;;31.73;24.85
61292;BME280;47165;42.664;23.368;2022-08-01T13:04:17;94704.25;;;32.06;24.67
61292;BME280;47165;42.664;23.368;2022-08-01T13:06:42;94687.88;;;32.73;23.10
61292;BME280;47165;42.664;23.368;2022-08-01T13:09:09;94695.09;;;33.26;22.62
61292;BME280;47165;42.664;23.368;2022-08-01T13:11:36;94686.88;;;33.10;22.75
61292;BME280;47165;42.664;23.368;2022-08-01T13:14:02;94690.25;;;33.52;22.44
61292;BME280;47165;42.664;23.368;2022-08-01T13:16:27;94690.78;;;33.25;22.26
61292;BME280;47165;42.664;23.368;2022-08-01T13:18:54;94682.59;;;33.73;22.55
61292;BME280;47165;42.664;23.368;2022-08-01T13:21:24;94700.69;;;33.84;22.85
61292;BME280;47165;42.664;23.368;2022-08-01T13:24:01;94688.00;;;33.84;22.14
61292;BME280;47165;42.664;23.368;2022-08-01T13:29:13;94697.28;;;33.89;22.12